createdAt,value
2017-10-25T00:02:05.196Z,15.30
2017-10-25T00:04:33.536Z,18.40
2017-10-25T00:07:03.014Z,16.73
2017-10-25T00:09:31.269Z,16.67
2017-10-25T00:11:59.727Z,22.17
2017-10-25T00:14:27.340Z,22.50
2017-10-25T00:16:55.732Z,20.43
2017-10-25T00:19:23.316Z,22.10
2017-10-25T00:21:50.892Z,18.93
2017-10-25T00:24:18.484Z,26.37
2017-10-25T00:26:46.048Z,22.93
2017-10-25T00:29:13.661Z,20.83
2017-10-25T00:31:41.225Z,20.30
2017-10-25T00:34:08.796Z,20.37
2017-10-25T00:36:36.392Z,19.60
2017-10-25T00:39:03.955Z,18.37
2017-10-25T00:41:31.548Z,17.83
2017-10-25T00:43:59.112Z,21.10
2017-10-25T00:46:26.706Z,18.87
2017-10-25T00:48:56.285Z,19.10
2017-10-25T00:51:23.881Z,20.00
2017-10-25T00:53:52.212Z,22.43
2017-10-25T00:56:19.820Z,25.00
2017-10-25T00:58:48.156Z,18.80
2017-10-25T01:01:15.778Z,20.50
2017-10-25T01:03:43.376Z,25.17
2017-10-25T01:06:10.952Z,18.47
2017-10-25T01:08:38.544Z,21.87
2017-10-25T01:11:06.919Z,21.12
2017-10-25T01:13:35.445Z,17.33
2017-10-25T01:16:03.314Z,22.35
2017-10-25T01:18:32.660Z,20.73
2017-10-25T01:21:01.488Z,18.85
2017-10-25T01:23:29.579Z,20.90
2017-10-25T01:25:58.709Z,17.17
2017-10-25T01:28:26.311Z,26.10
2017-10-25T01:30:55.567Z,24.30
2017-10-25T01:33:23.141Z,24.63
2017-10-25T01:35:50.728Z,18.45
2017-10-25T01:38:18.304Z,22.80
2017-10-25T01:40:45.896Z,23.07
2017-10-25T01:43:13.476Z,22.53
2017-10-25T01:45:41.065Z,22.13
2017-10-25T01:48:09.400Z,23.87
2017-10-25T01:50:36.993Z,19.10
2017-10-25T01:53:05.340Z,22.52
2017-10-25T01:55:32.941Z,20.97
2017-10-25T01:58:01.285Z,23.67
2017-10-25T02:00:28.871Z,22.07
2017-10-25T02:02:58.546Z,20.37
2017-10-25T02:05:26.140Z,25.70
2017-10-25T02:07:53.708Z,22.07
2017-10-25T02:10:22.064Z,22.40
2017-10-25T02:12:49.736Z,26.83
2017-10-25T02:15:17.507Z,20.50
2017-10-25T02:17:45.077Z,21.23
2017-10-25T02:20:13.420Z,20.63
2017-10-25T02:22:41.017Z,27.83
2017-10-25T02:25:09.469Z,22.33
2017-10-25T02:27:38.161Z,22.50
2017-10-25T02:30:06.427Z,32.65
2017-10-25T02:32:34.052Z,18.53
2017-10-25T02:35:01.759Z,20.48
2017-10-25T02:37:29.743Z,23.73
2017-10-25T02:39:58.717Z,30.33
2017-10-25T02:42:27.424Z,22.23
2017-10-25T02:44:57.332Z,24.27
2017-10-25T02:47:24.968Z,24.37
2017-10-25T02:49:52.560Z,29.37
2017-10-25T02:52:20.128Z,30.10
2017-10-25T02:54:48.504Z,25.00
2017-10-25T02:57:16.072Z,24.77
2017-10-25T02:59:44.437Z,24.17
2017-10-25T03:02:12.004Z,28.40
2017-10-25T03:04:39.657Z,24.10
2017-10-25T03:07:07.227Z,24.00
2017-10-25T03:09:34.828Z,24.47
2017-10-25T03:12:02.396Z,24.93
2017-10-25T03:14:29.984Z,23.20
2017-10-25T03:16:58.672Z,21.33
2017-10-25T03:19:26.464Z,26.33
2017-10-25T03:21:54.032Z,25.40
2017-10-25T03:24:22.396Z,23.60
2017-10-25T03:26:49.996Z,23.50
2017-10-25T03:29:17.580Z,22.13
2017-10-25T03:31:45.183Z,23.10
2017-10-25T03:34:12.752Z,26.87
2017-10-25T03:36:41.325Z,23.53
2017-10-25T03:39:08.893Z,20.15
2017-10-25T03:41:36.558Z,21.03
2017-10-25T03:44:04.912Z,21.27
2017-10-25T03:46:32.485Z,22.13
2017-10-25T03:49:00.081Z,20.33
2017-10-25T03:51:27.899Z,19.20
2017-10-25T03:53:56.700Z,16.37
2017-10-25T03:56:24.260Z,19.20
2017-10-25T03:58:51.860Z,18.83
2017-10-25T04:01:19.429Z,21.10
2017-10-25T04:03:47.052Z,20.93
2017-10-25T04:06:14.636Z,20.62
2017-10-25T04:08:42.964Z,25.30
2017-10-25T04:11:10.556Z,17.80
2017-10-25T04:13:38.900Z,17.30
2017-10-25T04:16:06.697Z,19.40
2017-10-25T04:18:34.351Z,17.63
2017-10-25T04:21:01.924Z,19.67
2017-10-25T04:23:29.521Z,18.27
2017-10-25T04:25:58.644Z,21.08
2017-10-25T04:28:26.240Z,18.27
2017-10-25T04:30:53.807Z,16.80
2017-10-25T04:33:21.401Z,14.67
2017-10-25T04:35:49.028Z,15.13
2017-10-25T04:38:16.612Z,18.30
2017-10-25T04:40:44.941Z,15.03
2017-10-25T04:43:12.927Z,19.98
2017-10-25T04:45:41.312Z,22.77
2017-10-25T04:48:08.885Z,17.67
2017-10-25T04:50:37.353Z,17.77
2017-10-25T04:53:04.932Z,14.95
2017-10-25T04:55:33.289Z,11.43
2017-10-25T04:58:01.240Z,21.55
2017-10-25T05:00:29.641Z,26.53
2017-10-25T05:02:57.320Z,20.30
2017-10-25T05:05:25.688Z,13.47
2017-10-25T05:07:53.257Z,17.87
2017-10-25T05:10:21.671Z,20.40
2017-10-25T05:12:49.240Z,17.87
2017-10-25T05:15:19.873Z,19.67
2017-10-25T05:17:49.199Z,20.97
2017-10-25T05:20:18.432Z,17.23
2017-10-25T05:22:47.564Z,17.97
2017-10-25T05:25:15.368Z,15.50
2017-10-25T05:27:43.045Z,22.27
2017-10-25T05:30:10.624Z,19.30
2017-10-25T05:32:38.988Z,20.47
2017-10-25T05:35:06.657Z,18.05
2017-10-25T05:37:35.021Z,18.77
2017-10-25T05:40:02.600Z,18.23
2017-10-25T05:42:31.168Z,18.83
2017-10-25T05:45:00.179Z,20.85
2017-10-25T05:47:28.568Z,19.48
2017-10-25T05:49:57.752Z,21.70
2017-10-25T05:52:26.093Z,24.13
2017-10-25T05:54:53.696Z,21.60
2017-10-25T05:57:22.029Z,23.10
2017-10-25T05:59:49.597Z,16.90
2017-10-25T06:02:17.189Z,17.03
2017-10-25T06:04:45.520Z,17.43
2017-10-25T06:07:13.129Z,14.17
2017-10-25T06:09:40.717Z,15.87
2017-10-25T06:12:08.612Z,17.83
2017-10-25T06:14:36.201Z,16.50
2017-10-25T06:17:03.980Z,19.10
2017-10-25T06:19:31.539Z,17.10
2017-10-25T06:22:00.509Z,15.00
2017-10-25T06:24:28.104Z,15.00
2017-10-25T06:26:57.355Z,17.23
2017-10-25T06:29:24.967Z,15.93
2017-10-25T06:31:53.305Z,15.30
2017-10-25T06:34:20.896Z,14.13
2017-10-25T06:36:48.465Z,17.00
2017-10-25T06:39:16.036Z,16.20
2017-10-25T06:41:44.399Z,16.93
2017-10-25T06:44:11.972Z,19.47
2017-10-25T06:46:40.324Z,16.80
2017-10-25T06:49:07.916Z,16.90
2017-10-25T06:51:36.272Z,12.27
2017-10-25T06:54:05.357Z,14.95
2017-10-25T06:56:32.949Z,16.70
2017-10-25T06:59:01.280Z,11.83
2017-10-25T07:01:28.882Z,12.97
2017-10-25T07:03:58.660Z,12.68
2017-10-25T07:06:26.243Z,12.57
2017-10-25T07:08:53.908Z,11.82
2017-10-25T07:11:23.003Z,12.70
2017-10-25T07:13:50.606Z,12.70
2017-10-25T07:16:18.340Z,10.27
2017-10-25T07:18:46.680Z,13.27
2017-10-25T07:21:14.239Z,14.02
2017-10-25T07:23:41.823Z,9.47
2017-10-25T07:26:09.387Z,12.30
2017-10-25T07:28:36.972Z,13.97
2017-10-25T07:31:05.304Z,11.63
2017-10-25T07:33:32.896Z,12.00
2017-10-25T07:36:00.464Z,10.67
2017-10-25T07:38:28.817Z,9.15
2017-10-25T07:40:58.612Z,12.65
2017-10-25T07:43:26.204Z,8.40
2017-10-25T07:45:53.767Z,10.07
2017-10-25T07:48:21.355Z,9.10
2017-10-25T07:50:49.684Z,14.03
2017-10-25T07:53:17.308Z,10.97
2017-10-25T07:55:44.872Z,12.30
2017-10-25T07:58:12.493Z,17.07
2017-10-25T08:00:40.086Z,10.50
2017-10-25T08:03:07.652Z,13.63
2017-10-25T08:05:35.236Z,10.67
2017-10-25T08:08:02.833Z,10.90
2017-10-25T08:10:31.187Z,12.10
2017-10-25T08:12:59.811Z,10.57
2017-10-25T08:15:28.165Z,8.83
2017-10-25T08:17:55.732Z,9.30
2017-10-25T08:20:23.329Z,12.03
2017-10-25T08:22:50.897Z,10.27
2017-10-25T08:25:18.480Z,9.60
2017-10-25T08:27:46.041Z,12.10
2017-10-25T08:30:13.923Z,11.38
2017-10-25T08:32:41.492Z,12.73
2017-10-25T08:35:09.082Z,7.03
2017-10-25T08:37:37.421Z,8.80
2017-10-25T08:40:05.064Z,12.07
2017-10-25T08:42:32.652Z,12.00
2017-10-25T08:45:00.220Z,10.63
2017-10-25T08:47:27.824Z,13.45
2017-10-25T08:49:55.421Z,8.90
2017-10-25T08:52:23.008Z,6.37
2017-10-25T08:54:52.106Z,20.27
2017-10-25T08:57:19.767Z,13.63
2017-10-25T08:59:47.362Z,9.50
2017-10-25T09:02:14.944Z,8.27
2017-10-25T09:04:42.531Z,10.13
2017-10-25T09:07:10.092Z,11.32
2017-10-25T09:09:37.680Z,14.03
2017-10-25T09:12:05.252Z,8.77
2017-10-25T09:14:33.608Z,11.13
2017-10-25T09:17:01.176Z,10.63
2017-10-25T09:19:28.776Z,30.60
2017-10-25T09:21:58.743Z,16.58
2017-10-25T09:24:26.304Z,11.83
2017-10-25T09:26:53.896Z,9.17
2017-10-25T09:29:22.228Z,5.20
2017-10-25T09:31:49.817Z,7.43
2017-10-25T09:34:17.472Z,6.25
2017-10-25T09:36:45.068Z,6.87
2017-10-25T09:39:12.632Z,7.32
2017-10-25T09:41:40.221Z,6.23
2017-10-25T09:44:07.787Z,7.40
2017-10-25T09:46:35.585Z,5.53
2017-10-25T09:49:03.152Z,7.30
2017-10-25T09:51:30.710Z,4.73
2017-10-25T09:54:00.161Z,4.10
2017-10-25T09:56:27.744Z,4.53
2017-10-25T09:58:55.329Z,6.07
2017-10-25T10:01:24.428Z,5.90
2017-10-25T10:03:54.453Z,7.77
2017-10-25T10:06:22.998Z,5.87
2017-10-25T10:08:50.594Z,5.20
2017-10-25T10:11:18.257Z,7.60
2017-10-25T10:13:45.829Z,4.73
2017-10-25T10:16:14.179Z,6.07
2017-10-25T10:18:41.736Z,4.45
2017-10-25T10:21:09.369Z,4.68
2017-10-25T10:23:37.328Z,3.63
2017-10-25T10:26:04.916Z,3.20
2017-10-25T10:28:32.476Z,3.40
2017-10-25T10:31:00.060Z,4.90
2017-10-25T10:33:27.728Z,3.93
2017-10-25T10:35:55.320Z,3.43
2017-10-25T10:38:23.666Z,3.10
2017-10-25T10:40:51.268Z,2.60
2017-10-25T10:43:18.846Z,4.50
2017-10-25T10:45:46.408Z,2.83
2017-10-25T10:48:14.000Z,3.63
2017-10-25T10:50:41.559Z,4.50
2017-10-25T10:53:09.153Z,3.72
2017-10-25T10:55:37.483Z,2.40
2017-10-25T10:58:05.070Z,3.42
2017-10-25T11:00:32.636Z,4.20
2017-10-25T11:03:00.232Z,4.80
2017-10-25T11:05:27.806Z,3.77
2017-10-25T11:07:55.419Z,2.50
2017-10-25T11:10:22.976Z,3.70
2017-10-25T11:12:50.639Z,3.70
2017-10-25T11:15:18.299Z,3.03
2017-10-25T11:17:45.907Z,2.20
2017-10-25T11:20:13.467Z,2.97
2017-10-25T11:22:41.028Z,2.13
2017-10-25T11:25:08.933Z,6.60
2017-10-25T11:27:36.512Z,5.33
2017-10-25T11:30:04.515Z,3.23
2017-10-25T11:32:32.843Z,4.93
2017-10-25T11:35:00.432Z,5.07
2017-10-25T11:37:27.998Z,2.53
2017-10-25T11:39:57.392Z,3.53
2017-10-25T11:42:24.961Z,18.93
2017-10-25T11:44:53.292Z,5.37
2017-10-25T11:47:20.890Z,3.90
2017-10-25T11:49:48.448Z,2.80
2017-10-25T11:52:16.052Z,6.53
2017-10-25T11:54:43.624Z,3.97
2017-10-25T11:57:11.212Z,4.40
2017-10-25T11:59:38.771Z,3.70
2017-10-25T12:02:06.708Z,2.47
2017-10-25T12:04:34.277Z,3.80
2017-10-25T12:07:01.841Z,4.80
2017-10-25T12:09:29.428Z,5.27
2017-10-25T12:11:58.846Z,4.40
2017-10-25T12:14:26.708Z,3.43
2017-10-25T12:16:54.276Z,7.57
2017-10-25T12:19:21.835Z,5.27
2017-10-25T12:21:49.497Z,5.00
2017-10-25T12:24:17.072Z,6.43
2017-10-25T12:26:45.436Z,3.37
2017-10-25T12:29:13.000Z,4.03
2017-10-25T12:31:40.587Z,4.97
2017-10-25T12:34:08.936Z,3.70
2017-10-25T12:36:36.600Z,3.00
2017-10-25T12:39:04.163Z,4.43
2017-10-25T12:41:31.750Z,3.20
2017-10-25T12:43:59.752Z,3.47
2017-10-25T12:46:27.373Z,4.20
2017-10-25T12:48:55.703Z,2.93
2017-10-25T12:51:23.264Z,6.00
2017-10-25T12:53:51.092Z,4.10
2017-10-25T12:56:18.659Z,3.30
2017-10-25T12:58:46.253Z,4.90
2017-10-25T13:01:13.841Z,3.97
2017-10-25T13:03:41.432Z,4.70
2017-10-25T13:06:09.760Z,6.23
2017-10-25T13:08:37.356Z,3.57
2017-10-25T13:11:07.929Z,3.62
2017-10-25T13:13:36.410Z,3.67
2017-10-25T13:16:05.480Z,4.40
2017-10-25T13:18:35.641Z,2.43
2017-10-25T13:21:03.212Z,3.30
2017-10-25T13:23:30.780Z,3.37
2017-10-25T13:25:59.920Z,8.60
2017-10-25T13:28:28.248Z,7.30
2017-10-25T13:30:56.031Z,3.13
2017-10-25T13:33:23.598Z,6.63
2017-10-25T13:35:51.161Z,4.83
2017-10-25T13:38:18.816Z,2.70
2017-10-25T13:40:46.475Z,3.73
2017-10-25T13:43:14.060Z,3.07
2017-10-25T13:45:42.388Z,5.60
2017-10-25T13:48:10.081Z,2.20
2017-10-25T13:50:37.745Z,4.83
2017-10-25T13:53:05.728Z,2.53
2017-10-25T13:55:34.092Z,5.23
2017-10-25T13:58:01.758Z,2.83
2017-10-25T14:00:29.361Z,2.77
2017-10-25T14:02:58.685Z,3.15
2017-10-25T14:05:26.244Z,3.03
2017-10-25T14:07:53.832Z,5.83
2017-10-25T14:10:22.228Z,8.43
2017-10-25T14:12:50.596Z,4.27
2017-10-25T14:15:18.160Z,5.97
2017-10-25T14:17:45.752Z,3.10
2017-10-25T14:20:14.389Z,3.85
2017-10-25T14:22:42.067Z,3.27
2017-10-25T14:25:09.629Z,5.30
2017-10-25T14:27:49.162Z,4.13
2017-10-25T14:30:16.835Z,2.58
2017-10-25T14:32:44.420Z,3.50
2017-10-25T14:35:12.761Z,3.67
2017-10-25T14:37:40.437Z,4.73
2017-10-25T14:40:08.005Z,4.03
2017-10-25T14:42:37.258Z,4.43
2017-10-25T14:45:04.861Z,5.95
2017-10-25T14:47:32.433Z,4.83
2017-10-25T14:50:00.792Z,4.90
2017-10-25T14:52:28.422Z,6.10
2017-10-25T14:54:56.944Z,6.90
2017-10-25T14:57:24.507Z,6.83
2017-10-25T14:59:52.096Z,6.20
2017-10-25T15:02:20.424Z,7.20
2017-10-25T15:04:48.214Z,6.13
2017-10-25T15:07:15.872Z,7.80
2017-10-25T15:09:44.196Z,5.27
2017-10-25T15:12:11.789Z,8.33
2017-10-25T15:14:39.780Z,5.40
2017-10-25T15:17:07.349Z,8.03
2017-10-25T15:19:34.916Z,6.50
2017-10-25T15:22:03.265Z,6.70
2017-10-25T15:24:30.833Z,7.07
2017-10-25T15:26:59.767Z,7.93
2017-10-25T15:29:28.101Z,7.57
2017-10-25T15:31:55.713Z,7.30
2017-10-25T15:34:23.332Z,9.30
2017-10-25T15:36:50.896Z,8.60
2017-10-25T15:39:18.500Z,8.20
2017-10-25T15:41:46.065Z,7.50
2017-10-25T15:44:13.644Z,8.80
2017-10-25T15:46:41.231Z,8.17
2017-10-25T15:49:08.798Z,10.20
2017-10-25T15:51:36.775Z,7.30
2017-10-25T15:54:05.122Z,8.37
2017-10-25T15:56:32.708Z,7.00
2017-10-25T15:59:00.381Z,10.40
2017-10-25T16:01:27.941Z,7.37
2017-10-25T16:03:55.781Z,8.03
2017-10-25T16:06:23.344Z,4.60
2017-10-25T16:08:50.928Z,9.20
2017-10-25T16:11:18.492Z,8.00
2017-10-25T16:13:46.865Z,6.93
2017-10-25T16:16:14.436Z,8.43
2017-10-25T16:18:43.004Z,6.40
2017-10-25T16:21:10.667Z,6.87
2017-10-25T16:23:38.330Z,8.60
2017-10-25T16:26:07.437Z,16.60
2017-10-25T16:28:35.765Z,9.83
2017-10-25T16:31:03.361Z,8.88
2017-10-25T16:33:30.939Z,9.10
2017-10-25T16:36:00.844Z,9.20
2017-10-25T16:38:28.409Z,8.40
2017-10-25T16:40:58.400Z,9.53
2017-10-25T16:43:25.993Z,6.90
2017-10-25T16:45:53.556Z,9.77
2017-10-25T16:48:21.908Z,7.90
2017-10-25T16:50:49.472Z,11.50
2017-10-25T16:53:17.253Z,8.43
2017-10-25T16:55:44.820Z,7.50
2017-10-25T16:58:13.156Z,11.53
2017-10-25T17:00:40.744Z,10.53
2017-10-25T17:03:08.308Z,9.35
2017-10-25T17:05:35.895Z,16.10
2017-10-25T17:08:04.224Z,9.97
2017-10-25T17:10:31.812Z,10.17
2017-10-25T17:12:59.782Z,9.90
2017-10-25T17:15:27.367Z,11.60
2017-10-25T17:17:55.700Z,17.23
2017-10-25T17:20:23.404Z,11.57
2017-10-25T17:22:51.733Z,17.27
2017-10-25T17:25:19.308Z,11.60
2017-10-25T17:27:46.904Z,17.73
2017-10-25T17:30:15.365Z,17.95
2017-10-25T17:32:43.692Z,14.90
2017-10-25T17:35:11.304Z,16.70
2017-10-25T17:37:38.906Z,13.27
2017-10-25T17:40:06.812Z,18.73
2017-10-25T17:42:34.452Z,14.73
2017-10-25T17:45:02.024Z,18.90
2017-10-25T17:47:29.596Z,14.80
2017-10-25T17:49:59.736Z,19.60
2017-10-25T17:52:27.299Z,15.87
2017-10-25T17:54:54.888Z,14.73
2017-10-25T17:57:23.224Z,15.33
2017-10-25T17:59:50.821Z,22.17
2017-10-25T18:02:19.176Z,19.93
2017-10-25T18:04:46.838Z,18.87
2017-10-25T18:07:14.408Z,22.02
2017-10-25T18:09:42.020Z,20.00
2017-10-25T18:12:09.589Z,17.53
2017-10-25T18:14:37.164Z,20.43
2017-10-25T18:17:04.761Z,16.93
2017-10-25T18:19:33.120Z,14.77
2017-10-25T18:22:00.850Z,13.55
2017-10-25T18:24:28.428Z,21.37
2017-10-25T18:26:57.689Z,18.00
2017-10-25T18:29:25.275Z,16.17
2017-10-25T18:31:52.837Z,20.33
2017-10-25T18:34:20.436Z,21.07
2017-10-25T18:36:48.772Z,23.40
2017-10-25T18:39:16.380Z,18.80
2017-10-25T18:41:44.721Z,18.30
2017-10-25T18:44:12.307Z,19.67
2017-10-25T18:46:40.695Z,24.17
2017-10-25T18:49:08.273Z,24.40
2017-10-25T18:51:36.628Z,22.63
2017-10-25T18:54:04.209Z,28.77
2017-10-25T18:56:32.703Z,27.80
2017-10-25T18:59:00.341Z,27.87
2017-10-25T19:01:27.917Z,32.47
2017-10-25T19:03:55.765Z,26.23
2017-10-25T19:06:23.409Z,34.87
2017-10-25T19:08:50.980Z,32.57
2017-10-25T19:11:18.753Z,30.67
2017-10-25T19:13:46.324Z,34.93
2017-10-25T19:16:14.664Z,40.80
2017-10-25T19:18:42.356Z,33.47
2017-10-25T19:21:09.933Z,34.40
2017-10-25T19:23:38.469Z,39.17
2017-10-25T19:26:06.032Z,38.57
2017-10-25T19:28:33.606Z,32.67
2017-10-25T19:31:01.200Z,41.93
2017-10-25T19:33:29.557Z,31.83
2017-10-25T19:36:00.092Z,36.15
2017-10-25T19:38:28.432Z,38.43
2017-10-25T19:40:57.693Z,28.40
2017-10-25T19:43:26.152Z,33.00
2017-10-25T19:45:55.233Z,36.00
2017-10-25T19:48:22.920Z,36.37
2017-10-25T19:50:51.257Z,36.90
2017-10-25T19:53:19.265Z,36.90
2017-10-25T19:55:46.832Z,35.63
2017-10-25T19:58:15.164Z,36.80
2017-10-25T20:00:42.756Z,39.07
2017-10-25T20:03:11.097Z,36.75
2017-10-25T20:05:38.696Z,39.33
2017-10-25T20:08:06.260Z,41.53
2017-10-25T20:10:33.924Z,37.60
2017-10-25T20:13:01.495Z,35.73
2017-10-25T20:15:30.149Z,36.40
2017-10-25T20:17:59.772Z,39.13
2017-10-25T20:20:27.344Z,42.20
2017-10-25T20:22:55.001Z,38.67
2017-10-25T20:25:22.577Z,36.37
2017-10-25T20:27:50.948Z,34.77
2017-10-25T20:30:19.284Z,39.33
2017-10-25T20:32:46.885Z,40.00
2017-10-25T20:35:15.239Z,36.83
2017-10-25T20:37:42.972Z,40.30
2017-10-25T20:40:10.577Z,37.63
2017-10-25T20:42:38.196Z,39.50
2017-10-25T20:45:06.627Z,43.20
2017-10-25T20:47:34.207Z,39.47
2017-10-25T20:50:02.565Z,38.63
2017-10-25T20:52:30.145Z,40.30
2017-10-25T20:54:58.809Z,46.30
2017-10-25T20:57:26.377Z,49.20
2017-10-25T20:59:53.977Z,42.30
2017-10-25T21:02:21.593Z,43.50
2017-10-25T21:04:49.968Z,46.83
2017-10-25T21:07:19.048Z,42.57
2017-10-25T21:09:46.617Z,43.80
2017-10-25T21:12:14.249Z,43.33
2017-10-25T21:14:41.820Z,39.30
2017-10-25T21:17:09.401Z,36.33
2017-10-25T21:19:37.280Z,39.73
2017-10-25T21:22:04.860Z,44.05
2017-10-25T21:24:33.190Z,40.77
2017-10-25T21:27:00.784Z,40.10
2017-10-25T21:29:28.356Z,37.10
2017-10-25T21:31:57.640Z,45.03
2017-10-25T21:34:25.212Z,42.27
2017-10-25T21:36:52.825Z,43.93
2017-10-25T21:39:20.440Z,41.90
2017-10-25T21:41:48.776Z,39.23
2017-10-25T21:44:16.680Z,39.63
2017-10-25T21:46:44.256Z,42.70
2017-10-25T21:49:12.712Z,43.20
2017-10-25T21:51:40.291Z,45.97
2017-10-25T21:54:08.661Z,42.30
2017-10-25T21:56:36.237Z,44.87
2017-10-25T21:59:04.605Z,43.66
2017-10-25T22:01:32.949Z,44.47
2017-10-25T22:04:00.549Z,44.00
2017-10-25T22:06:28.896Z,65.10
2017-10-25T22:08:59.016Z,106.03
2017-10-25T22:11:26.591Z,284.17
2017-10-25T22:13:54.160Z,319.47
2017-10-25T22:16:21.760Z,390.10
2017-10-25T22:18:49.380Z,393.50
2017-10-25T22:21:18.495Z,363.10
2017-10-25T22:23:46.836Z,398.63
2017-10-25T22:26:14.433Z,443.57
2017-10-25T22:28:42.775Z,461.50
2017-10-25T22:31:10.561Z,369.65
2017-10-25T22:33:38.136Z,412.50
2017-10-25T22:36:06.479Z,332.97
2017-10-25T22:38:34.071Z,384.63
2017-10-25T22:41:02.412Z,361.70
2017-10-25T22:43:30.417Z,507.02
2017-10-25T22:45:59.717Z,328.87
2017-10-25T22:48:28.056Z,288.33
2017-10-25T22:50:55.651Z,192.70
2017-10-25T22:53:23.990Z,186.73
2017-10-25T22:55:51.693Z,203.83
2017-10-25T22:58:19.269Z,101.50
2017-10-25T23:00:47.633Z,274.97
2017-10-25T23:03:15.305Z,366.40
2017-10-25T23:05:43.700Z,329.80
2017-10-25T23:08:12.036Z,288.80
2017-10-25T23:10:40.501Z,272.30
2017-10-25T23:13:08.121Z,248.47
2017-10-25T23:15:36.483Z,198.13
2017-10-25T23:18:04.117Z,81.87
2017-10-25T23:20:31.700Z,225.23
2017-10-25T23:22:59.928Z,317.87
2017-10-25T23:25:27.521Z,64.07
2017-10-25T23:27:55.093Z,49.53
2017-10-25T23:30:23.451Z,45.77
2017-10-25T23:32:51.031Z,45.17
2017-10-25T23:35:18.628Z,45.90
2017-10-25T23:37:46.208Z,44.33
2017-10-25T23:40:13.921Z,45.70
2017-10-25T23:42:41.492Z,259.50
2017-10-25T23:45:09.067Z,145.77
2017-10-25T23:47:37.429Z,151.83
2017-10-25T23:50:05.003Z,52.28
2017-10-25T23:52:33.360Z,45.23
2017-10-25T23:55:01.032Z,47.43
2017-10-25T23:57:28.791Z,48.57
2017-10-25T23:59:58.171Z,50.63
